sensor_id;sensor_type;location;lat;lon;timestamp;pressure;altitude;pressure_sealevel;temperature;humidity
74427;BME280;62859;53.906;27.430;2024-02-14T00:04:15;1008.8;;;5.2;67.9
74427;BME280;62859;53.906;27.430;2024-02-14T00:09:23;1008.8;;;5.1;68.1
74427;BME280;62859;53.906;27.430;2024-02-14T00:14:09;1008.9;;;5.1;68.3
74427;BME280;62859;53.906;27.430;2024-02-14T00:19:17;1008.9;;;5.2;67.9
74427;BME280;62859;53.906;27.430;2024-02-14T00:24:15;1008.9;;;5.2;67.5
74427;BME280;62859;53.906;27.430;2024-02-14T00:29:09;1008.9;;;5.2;67.4
74427;BME280;62859;53.906;27.430;2024-02-14T00:34:35;1008.9;;;5.2;67.3
74427;BME280;62859;53.906;27.430;2024-02-14T00:39:53;1009;;;5.2;67.3
74427;BME280;62859;53.906;27.430;2024-02-14T00:44:35;1009;;;5.2;66.9
74427;BME280;62859;53.906;27.430;2024-02-14T00:49:53;1008.9;;;5.2;67
74427;BME280;62859;53.906;27.430;2024-02-14T00:54:53;1009;;;5.3;67.3
74427;BME280;62859;53.906;27.430;2024-02-14T00:59:45;1009;;;5.2;67.3
74427;BME280;62859;53.906;27.430;2024-02-14T01:04:53;1009;;;5.2;67
74427;BME280;62859;53.906;27.430;2024-02-14T01:09:29;1009;;;5.1;67.1
74427;BME280;62859;53.906;27.430;2024-02-14T01:14:11;1009;;;5.1;67.1
74427;BME280;62859;53.906;27.430;2024-02-14T01:19:25;1009;;;5.1;66.7
74427;BME280;62859;53.906;27.430;2024-02-14T01:24:53;1009;;;5.1;67
74427;BME280;62859;53.906;27.430;2024-02-14T01:29:37;1009;;;5;67.2
74427;BME280;62859;53.906;27.430;2024-02-14T01:34:53;1009;;;5;67.1
74427;BME280;62859;53.906;27.430;2024-02-14T01:39:15;1009;;;5;67.8
74427;BME280;62859;53.906;27.430;2024-02-14T01:44:53;1009.1;;;5;67.6
74427;BME280;62859;53.906;27.430;2024-02-14T01:49:27;1009.2;;;5.1;67.5
74427;BME280;62859;53.906;27.430;2024-02-14T01:54:10;1009.2;;;5;67.3
74427;BME280;62859;53.906;27.430;2024-02-14T01:59:19;1009.2;;;5;67.3
74427;BME280;62859;53.906;27.430;2024-02-14T02:04:09;1009.3;;;5;66.9
74427;BME280;62859;53.906;27.430;2024-02-14T02:09:09;1009.3;;;5;66.9
74427;BME280;62859;53.906;27.430;2024-02-14T02:14:53;1009.4;;;5;67
74427;BME280;62859;53.906;27.430;2024-02-14T02:19:43;1009.4;;;5;66.9
74427;BME280;62859;53.906;27.430;2024-02-14T02:24:35;1009.4;;;5;66.9
74427;BME280;62859;53.906;27.430;2024-02-14T02:29:53;1009.5;;;5.1;67.4
74427;BME280;62859;53.906;27.430;2024-02-14T02:34:34;1009.5;;;5.1;67
74427;BME280;62859;53.906;27.430;2024-02-14T02:39:33;1009.5;;;5;66.9
74427;BME280;62859;53.906;27.430;2024-02-14T02:44:53;1009.6;;;5;66.6
74427;BME280;62859;53.906;27.430;2024-02-14T02:49:33;1009.6;;;4.9;66.6
74427;BME280;62859;53.906;27.430;2024-02-14T02:54:25;1009.7;;;4.9;66.6
74427;BME280;62859;53.906;27.430;2024-02-14T02:59:53;1009.7;;;4.9;66.5
74427;BME280;62859;53.906;27.430;2024-02-14T03:04:43;1009.7;;;4.9;66.4
74427;BME280;62859;53.906;27.430;2024-02-14T03:09:34;1009.7;;;4.9;66.3
74427;BME280;62859;53.906;27.430;2024-02-14T03:14:23;1009.8;;;4.9;66.3
74427;BME280;62859;53.906;27.430;2024-02-14T03:19:53;1009.8;;;4.9;66.4
74427;BME280;62859;53.906;27.430;2024-02-14T03:24:35;1009.8;;;4.9;66.6
74427;BME280;62859;53.906;27.430;2024-02-14T03:29:10;1009.9;;;4.8;66.6
74427;BME280;62859;53.906;27.430;2024-02-14T03:34:17;1010;;;4.8;66.6
74427;BME280;62859;53.906;27.430;2024-02-14T03:39:35;1010;;;4.8;66.4
74427;BME280;62859;53.906;27.430;2024-02-14T03:44:09;1010;;;4.7;66.1
74427;BME280;62859;53.906;27.430;2024-02-14T03:49:51;1010.1;;;4.7;66.2
74427;BME280;62859;53.906;27.430;2024-02-14T03:54:44;1010.2;;;4.7;66.2
74427;BME280;62859;53.906;27.430;2024-02-14T03:59:27;1010.2;;;4.7;66.7
74427;BME280;62859;53.906;27.430;2024-02-14T04:04:54;1010.3;;;4.7;66.4
74427;BME280;62859;53.906;27.430;2024-02-14T04:09:26;1010.3;;;4.8;66.4
74427;BME280;62859;53.906;27.430;2024-02-14T04:14:26;1010.4;;;4.8;66.1
74427;BME280;62859;53.906;27.430;2024-02-14T04:19:18;1010.4;;;4.7;66.1
74427;BME280;62859;53.906;27.430;2024-02-14T04:24:33;1010.4;;;4.7;66.2
74427;BME280;62859;53.906;27.430;2024-02-14T04:29:10;1010.4;;;4.6;66.3
74427;BME280;62859;53.906;27.430;2024-02-14T04:34:46;1010.4;;;4.6;66.1
74427;BME280;62859;53.906;27.430;2024-02-14T04:39:10;1010.4;;;4.6;65.8
74427;BME280;62859;53.906;27.430;2024-02-14T04:44:12;1010.6;;;4.6;66.4
74427;BME280;62859;53.906;27.430;2024-02-14T04:49:10;1010.7;;;4.5;66.6
74427;BME280;62859;53.906;27.430;2024-02-14T04:54:54;1010.7;;;4.5;66.3
74427;BME280;62859;53.906;27.430;2024-02-14T04:59:54;1010.7;;;4.6;66.2
74427;BME280;62859;53.906;27.430;2024-02-14T05:04:10;1010.8;;;4.5;65.9
74427;BME280;62859;53.906;27.430;2024-02-14T05:09:24;1010.7;;;4.5;65.9
74427;BME280;62859;53.906;27.430;2024-02-14T05:14:10;1010.8;;;4.6;65.9
74427;BME280;62859;53.906;27.430;2024-02-14T05:24:10;1010.9;;;4.5;65.1
74427;BME280;62859;53.906;27.430;2024-02-14T05:29:52;1011;;;4.5;64.9
74427;BME280;62859;53.906;27.430;2024-02-14T05:39:46;1011;;;4.5;65.2
74427;BME280;62859;53.906;27.430;2024-02-14T05:44:36;1011.1;;;4.6;64.7
74427;BME280;62859;53.906;27.430;2024-02-14T05:49:54;1011.2;;;4.7;64.6
74427;BME280;62859;53.906;27.430;2024-02-14T05:54:34;1011.3;;;4.6;64.3
74427;BME280;62859;53.906;27.430;2024-02-14T05:59:46;1011.3;;;4.6;63.5
74427;BME280;62859;53.906;27.430;2024-02-14T06:04:18;1011.4;;;4.6;64.3
74427;BME280;62859;53.906;27.430;2024-02-14T06:09:20;1011.5;;;4.5;64.3
74427;BME280;62859;53.906;27.430;2024-02-14T06:14:34;1011.5;;;4.4;64.5
74427;BME280;62859;53.906;27.430;2024-02-14T06:19:52;1011.6;;;4.4;64.4
74427;BME280;62859;53.906;27.430;2024-02-14T06:24:30;1011.6;;;4.5;64.6
74427;BME280;62859;53.906;27.430;2024-02-14T06:29:12;1011.6;;;4.4;65
74427;BME280;62859;53.906;27.430;2024-02-14T06:34:54;1011.7;;;4.4;64.9
74427;BME280;62859;53.906;27.430;2024-02-14T06:39:24;1011.8;;;4.5;65.1
74427;BME280;62859;53.906;27.430;2024-02-14T06:44:10;1011.9;;;4.5;64.9
74427;BME280;62859;53.906;27.430;2024-02-14T06:49:28;1012;;;4.5;64.8
74427;BME280;62859;53.906;27.430;2024-02-14T06:54:34;1011.9;;;4.5;64.7
74427;BME280;62859;53.906;27.430;2024-02-14T06:59:18;1011.9;;;4.5;65.3
74427;BME280;62859;53.906;27.430;2024-02-14T07:04:54;1012;;;4.5;64.9
74427;BME280;62859;53.906;27.430;2024-02-14T07:09:36;1012;;;4.5;65.2
74427;BME280;62859;53.906;27.430;2024-02-14T07:14:46;1012;;;4.6;64.9
74427;BME280;62859;53.906;27.430;2024-02-14T07:19:18;1012;;;4.6;64.7
74427;BME280;62859;53.906;27.430;2024-02-14T07:24:54;1012;;;4.6;64.5
74427;BME280;62859;53.906;27.430;2024-02-14T07:29:10;1012.1;;;4.6;64.7
74427;BME280;62859;53.906;27.430;2024-02-14T07:34:44;1012.2;;;4.5;65.1
74427;BME280;62859;53.906;27.430;2024-02-14T07:39:26;1012.2;;;4.6;65.3
74427;BME280;62859;53.906;27.430;2024-02-14T07:44:54;1012.1;;;4.7;65.8
74427;BME280;62859;53.906;27.430;2024-02-14T07:49:34;1012.2;;;4.7;65.7
74427;BME280;62859;53.906;27.430;2024-02-14T07:54:54;1012.2;;;4.8;65.1
74427;BME280;62859;53.906;27.430;2024-02-14T07:59:10;1012.3;;;4.9;64.7
74427;BME280;62859;53.906;27.430;2024-02-14T08:04:38;1012.3;;;4.9;64.2
74427;BME280;62859;53.906;27.430;2024-02-14T08:09:54;1012.3;;;4.8;64
74427;BME280;62859;53.906;27.430;2024-02-14T08:14:10;1012.4;;;4.8;64
74427;BME280;62859;53.906;27.430;2024-02-14T08:19:24;1012.4;;;4.7;64.5
74427;BME280;62859;53.906;27.430;2024-02-14T08:24:18;1012.4;;;4.7;65.1
74427;BME280;62859;53.906;27.430;2024-02-14T08:29:18;1012.4;;;4.7;65.4
74427;BME280;62859;53.906;27.430;2024-02-14T08:34:34;1012.5;;;4.7;65.7
74427;BME280;62859;53.906;27.430;2024-02-14T08:39:26;1012.6;;;4.6;65.6
74427;BME280;62859;53.906;27.430;2024-02-14T08:44:18;1012.6;;;4.7;65.9
74427;BME280;62859;53.906;27.430;2024-02-14T08:49:54;1012.6;;;4.6;65.5
74427;BME280;62859;53.906;27.430;2024-02-14T08:54:30;1012.6;;;4.5;66.3
74427;BME280;62859;53.906;27.430;2024-02-14T08:59:54;1012.7;;;4.5;66.2
74427;BME280;62859;53.906;27.430;2024-02-14T09:04:54;1012.7;;;4.6;65.9
74427;BME280;62859;53.906;27.430;2024-02-14T09:09:46;1012.8;;;4.6;66.3
74427;BME280;62859;53.906;27.430;2024-02-14T09:14:54;1012.8;;;4.6;66.5
74427;BME280;62859;53.906;27.430;2024-02-14T09:19:54;1012.9;;;4.6;66.8
74427;BME280;62859;53.906;27.430;2024-02-14T09:24:34;1013;;;4.6;66.8
74427;BME280;62859;53.906;27.430;2024-02-14T09:29:26;1013;;;4.7;66.4
74427;BME280;62859;53.906;27.430;2024-02-14T09:34:52;1013;;;4.7;66.2
74427;BME280;62859;53.906;27.430;2024-02-14T09:39:38;1013.1;;;4.8;65.6
74427;BME280;62859;53.906;27.430;2024-02-14T09:44:40;1013.1;;;4.8;65.3
74427;BME280;62859;53.906;27.430;2024-02-14T09:49:16;1013.1;;;4.8;65.1
74427;BME280;62859;53.906;27.430;2024-02-14T09:54:54;1013.1;;;5;64.8
74427;BME280;62859;53.906;27.430;2024-02-14T09:59:10;1013.2;;;5.1;64.4
74427;BME280;62859;53.906;27.430;2024-02-14T10:04:10;1013.1;;;5.1;64.5
74427;BME280;62859;53.906;27.430;2024-02-14T10:09:18;1013.1;;;5.2;64
74427;BME280;62859;53.906;27.430;2024-02-14T10:14:36;1013.1;;;5.2;63.7
74427;BME280;62859;53.906;27.430;2024-02-14T10:19:14;1013.2;;;5.3;63.6
74427;BME280;62859;53.906;27.430;2024-02-14T10:24:46;1013.2;;;5.3;63.2
74427;BME280;62859;53.906;27.430;2024-02-14T10:29:12;1013.2;;;5.3;62.6
74427;BME280;62859;53.906;27.430;2024-02-14T10:34:10;1013.2;;;5.4;62.3
74427;BME280;62859;53.906;27.430;2024-02-14T10:39:54;1013.2;;;5.5;61.8
74427;BME280;62859;53.906;27.430;2024-02-14T10:44:36;1013.1;;;5.6;61.4
74427;BME280;62859;53.906;27.430;2024-02-14T10:49:19;1013.1;;;5.9;61.5
74427;BME280;62859;53.906;27.430;2024-02-14T10:54:18;1013;;;6.3;60.4
74427;BME280;62859;53.906;27.430;2024-02-14T10:59:34;1013;;;6.9;57.8
74427;BME280;62859;53.906;27.430;2024-02-14T11:09:46;1013.2;;;8;54.5
74427;BME280;62859;53.906;27.430;2024-02-14T11:14:10;1013.2;;;8.1;53.4
74427;BME280;62859;53.906;27.430;2024-02-14T11:19:34;1013.3;;;7.8;53.9
74427;BME280;62859;53.906;27.430;2024-02-14T11:24:34;1013.3;;;7.6;53.7
74427;BME280;62859;53.906;27.430;2024-02-14T11:29:54;1013.3;;;7.4;55.1
74427;BME280;62859;53.906;27.430;2024-02-14T11:34:36;1013.4;;;7.1;54.8
74427;BME280;62859;53.906;27.430;2024-02-14T11:39:10;1013.4;;;6.8;55.5
74427;BME280;62859;53.906;27.430;2024-02-14T11:44:16;1013.4;;;6.6;55.9
74427;BME280;62859;53.906;27.430;2024-02-14T11:49:36;1013.4;;;6.4;56.1
74427;BME280;62859;53.906;27.430;2024-02-14T11:54:18;1013.5;;;6.3;56.4
74427;BME280;62859;53.906;27.430;2024-02-14T11:59:36;1013.5;;;6.1;57.3
74427;BME280;62859;53.906;27.430;2024-02-14T12:04:44;1013.5;;;6;57.6
74427;BME280;62859;53.906;27.430;2024-02-14T12:09:10;1013.5;;;6;57
74427;BME280;62859;53.906;27.430;2024-02-14T12:14:46;1013.5;;;6;57.6
74427;BME280;62859;53.906;27.430;2024-02-14T12:19:36;1013.5;;;6;57.9
74427;BME280;62859;53.906;27.430;2024-02-14T12:24:34;1013.5;;;5.9;58.1
74427;BME280;62859;53.906;27.430;2024-02-14T12:29:26;1013.5;;;5.9;57.8
74427;BME280;62859;53.906;27.430;2024-02-14T12:34:34;1013.5;;;5.8;57.3
74427;BME280;62859;53.906;27.430;2024-02-14T12:39:10;1013.6;;;5.7;57.3
74427;BME280;62859;53.906;27.430;2024-02-14T12:44:46;1013.7;;;5.7;57.2
74427;BME280;62859;53.906;27.430;2024-02-14T12:49:16;1013.7;;;5.5;57.5
74427;BME280;62859;53.906;27.430;2024-02-14T12:54:20;1013.7;;;5.5;57.6
74427;BME280;62859;53.906;27.430;2024-02-14T12:59:38;1013.7;;;5.4;57.8
74427;BME280;62859;53.906;27.430;2024-02-14T13:04:54;1013.7;;;5.4;57.6
74427;BME280;62859;53.906;27.430;2024-02-14T13:09:52;1013.7;;;5.3;57.2
74427;BME280;62859;53.906;27.430;2024-02-14T13:14:26;1013.8;;;5.4;57.5
74427;BME280;62859;53.906;27.430;2024-02-14T13:19:28;1013.8;;;5.4;56.3
74427;BME280;62859;53.906;27.430;2024-02-14T13:24:10;1013.9;;;5.3;56.7
74427;BME280;62859;53.906;27.430;2024-02-14T13:29:10;1013.9;;;5.2;57
74427;BME280;62859;53.906;27.430;2024-02-14T13:34:18;1014;;;5.2;57.7
74427;BME280;62859;53.906;27.430;2024-02-14T13:39:54;1014.1;;;5.4;57.6
74427;BME280;62859;53.906;27.430;2024-02-14T13:44:10;1014.1;;;5.3;56.8
74427;BME280;62859;53.906;27.430;2024-02-14T13:49:38;1014.1;;;5.3;56.6
74427;BME280;62859;53.906;27.430;2024-02-14T13:54:10;1014.2;;;5.2;56.3
74427;BME280;62859;53.906;27.430;2024-02-14T13:59:54;1014.3;;;5.2;56.5
74427;BME280;62859;53.906;27.430;2024-02-14T14:04:26;1014.3;;;5.2;56.8
74427;BME280;62859;53.906;27.430;2024-02-14T14:09:38;1014.3;;;5.1;56.6
74427;BME280;62859;53.906;27.430;2024-02-14T14:14:18;1014.4;;;5;56.5
74427;BME280;62859;53.906;27.430;2024-02-14T14:19:46;1014.4;;;5;56.3
74427;BME280;62859;53.906;27.430;2024-02-14T14:24:12;1014.4;;;5;56.9
74427;BME280;62859;53.906;27.430;2024-02-14T14:29:54;1014.5;;;4.9;56.9
74427;BME280;62859;53.906;27.430;2024-02-14T14:34:28;1014.5;;;4.9;56.4
74427;BME280;62859;53.906;27.430;2024-02-14T14:39:44;1014.6;;;4.8;56.2
74427;BME280;62859;53.906;27.430;2024-02-14T14:44:54;1014.7;;;4.8;56
74427;BME280;62859;53.906;27.430;2024-02-14T14:49:16;1014.8;;;4.7;56.2
74427;BME280;62859;53.906;27.430;2024-02-14T14:54:36;1014.8;;;4.7;56.7
74427;BME280;62859;53.906;27.430;2024-02-14T14:59:46;1014.8;;;4.7;57.1
74427;BME280;62859;53.906;27.430;2024-02-14T15:04:10;1014.8;;;4.7;57.7
74427;BME280;62859;53.906;27.430;2024-02-14T15:09:10;1014.8;;;4.7;57.5
74427;BME280;62859;53.906;27.430;2024-02-14T15:14:18;1014.9;;;4.7;57.9
74427;BME280;62859;53.906;27.430;2024-02-14T15:24:54;1014.8;;;4.8;57.7
74427;BME280;62859;53.906;27.430;2024-02-14T15:29:44;1014.8;;;4.7;57.6
74427;BME280;62859;53.906;27.430;2024-02-14T15:34:54;1014.9;;;4.6;58
74427;BME280;62859;53.906;27.430;2024-02-14T15:39:26;1015;;;4.6;58.1
74427;BME280;62859;53.906;27.430;2024-02-14T15:44:46;1015;;;4.5;58.8
74427;BME280;62859;53.906;27.430;2024-02-14T15:49:54;1015;;;4.6;59.2
74427;BME280;62859;53.906;27.430;2024-02-14T15:54:54;1015.1;;;4.5;59.2
74427;BME280;62859;53.906;27.430;2024-02-14T15:59:24;1015.1;;;4.5;59.3
74427;BME280;62859;53.906;27.430;2024-02-14T16:04:18;1015.1;;;4.6;59.3
74427;BME280;62859;53.906;27.430;2024-02-14T16:09:34;1015.2;;;4.5;59.5
74427;BME280;62859;53.906;27.430;2024-02-14T16:14:42;1015.2;;;4.5;59.5
74427;BME280;62859;53.906;27.430;2024-02-14T16:19:50;1015.2;;;4.5;59.3
74427;BME280;62859;53.906;27.430;2024-02-14T16:24:14;1015.3;;;4.6;59.2
74427;BME280;62859;53.906;27.430;2024-02-14T16:29:52;1015.3;;;4.6;59.4
74427;BME280;62859;53.906;27.430;2024-02-14T16:34:46;1015.3;;;4.6;59.7
74427;BME280;62859;53.906;27.430;2024-02-14T16:39:10;1015.3;;;4.5;59.3
74427;BME280;62859;53.906;27.430;2024-02-14T16:44:10;1015.4;;;4.5;59.5
74427;BME280;62859;53.906;27.430;2024-02-14T16:49:10;1015.5;;;4.5;59.3
74427;BME280;62859;53.906;27.430;2024-02-14T16:54:46;1015.5;;;4.5;59.1
74427;BME280;62859;53.906;27.430;2024-02-14T16:59:54;1015.5;;;4.5;59
74427;BME280;62859;53.906;27.430;2024-02-14T17:04:44;1015.6;;;4.4;59.2
74427;BME280;62859;53.906;27.430;2024-02-14T17:09:10;1015.6;;;4.4;59.2
74427;BME280;62859;53.906;27.430;2024-02-14T17:14:34;1015.6;;;4.5;59.2
74427;BME280;62859;53.906;27.430;2024-02-14T17:19:34;1015.6;;;4.5;59.6
74427;BME280;62859;53.906;27.430;2024-02-14T17:24:19;1015.6;;;4.5;59.3
74427;BME280;62859;53.906;27.430;2024-02-14T17:29:18;1015.7;;;4.5;59.3
74427;BME280;62859;53.906;27.430;2024-02-14T17:34:54;1015.7;;;4.5;59.1
74427;BME280;62859;53.906;27.430;2024-02-14T17:39:24;1015.6;;;4.5;59.2
74427;BME280;62859;53.906;27.430;2024-02-14T17:44:54;1015.6;;;4.5;59.1
74427;BME280;62859;53.906;27.430;2024-02-14T17:49:34;1015.6;;;4.6;58.9
74427;BME280;62859;53.906;27.430;2024-02-14T17:54:34;1015.6;;;4.5;59.2
74427;BME280;62859;53.906;27.430;2024-02-14T17:59:24;1015.6;;;4.6;59.1
74427;BME280;62859;53.906;27.430;2024-02-14T18:04:54;1015.6;;;4.6;58.7
74427;BME280;62859;53.906;27.430;2024-02-14T18:09:54;1015.7;;;4.6;58.9
74427;BME280;62859;53.906;27.430;2024-02-14T18:14:26;1015.6;;;4.6;58.7
74427;BME280;62859;53.906;27.430;2024-02-14T18:19:10;1015.6;;;4.6;58.5
74427;BME280;62859;53.906;27.430;2024-02-14T18:24:10;1015.6;;;4.6;58.6
74427;BME280;62859;53.906;27.430;2024-02-14T18:29:18;1015.7;;;4.5;58.3
74427;BME280;62859;53.906;27.430;2024-02-14T18:34:16;1015.7;;;4.5;57.9
74427;BME280;62859;53.906;27.430;2024-02-14T18:39:52;1015.7;;;4.5;58.6
74427;BME280;62859;53.906;27.430;2024-02-14T18:44:34;1015.7;;;4.5;58.7
74427;BME280;62859;53.906;27.430;2024-02-14T18:49:44;1015.7;;;4.5;59.2
74427;BME280;62859;53.906;27.430;2024-02-14T18:54:46;1015.7;;;4.5;58.9
74427;BME280;62859;53.906;27.430;2024-02-14T18:59:54;1015.7;;;4.5;59.1
74427;BME280;62859;53.906;27.430;2024-02-14T19:04:18;1015.7;;;4.6;59.3
74427;BME280;62859;53.906;27.430;2024-02-14T19:09:46;1015.8;;;4.5;59.4
74427;BME280;62859;53.906;27.430;2024-02-14T19:14:26;1015.7;;;4.5;59.5
74427;BME280;62859;53.906;27.430;2024-02-14T19:19:46;1015.8;;;4.5;59.8
74427;BME280;62859;53.906;27.430;2024-02-14T19:24:34;1015.9;;;4.4;59.7
74427;BME280;62859;53.906;27.430;2024-02-14T19:29:54;1015.9;;;4.4;60.3
74427;BME280;62859;53.906;27.430;2024-02-14T19:34:38;1015.9;;;4.4;60
74427;BME280;62859;53.906;27.430;2024-02-14T19:39:44;1015.9;;;4.2;60.2
74427;BME280;62859;53.906;27.430;2024-02-14T19:44:54;1015.9;;;4.1;60.1
74427;BME280;62859;53.906;27.430;2024-02-14T19:49:24;1015.9;;;4.2;60.2
74427;BME280;62859;53.906;27.430;2024-02-14T19:54:10;1016;;;4.1;60.2
74427;BME280;62859;53.906;27.430;2024-02-14T19:59:36;1016;;;4.1;60.3
74427;BME280;62859;53.906;27.430;2024-02-14T20:04:26;1016.1;;;4.1;60.3
74427;BME280;62859;53.906;27.430;2024-02-14T20:09:16;1016.2;;;4.1;60.1
74427;BME280;62859;53.906;27.430;2024-02-14T20:14:54;1016.2;;;4.2;60.5
74427;BME280;62859;53.906;27.430;2024-02-14T20:19:36;1016.2;;;4.2;59.9
74427;BME280;62859;53.906;27.430;2024-02-14T20:24:46;1016.3;;;4.1;59.9
74427;BME280;62859;53.906;27.430;2024-02-14T20:29:28;1016.3;;;4;60.1
74427;BME280;62859;53.906;27.430;2024-02-14T20:34:36;1016.3;;;4;60.1
74427;BME280;62859;53.906;27.430;2024-02-14T20:39:24;1016.3;;;3.9;60.3
74427;BME280;62859;53.906;27.430;2024-02-14T20:44:46;1016.2;;;3.9;60.1
74427;BME280;62859;53.906;27.430;2024-02-14T20:49:10;1016.2;;;4;60.1
74427;BME280;62859;53.906;27.430;2024-02-14T20:54:46;1016.3;;;4;59.9
74427;BME280;62859;53.906;27.430;2024-02-14T20:59:26;1016.2;;;4.1;60.6
74427;BME280;62859;53.906;27.430;2024-02-14T21:04:54;1016.2;;;4.1;60
74427;BME280;62859;53.906;27.430;2024-02-14T21:09:30;1016.2;;;4;60
74427;BME280;62859;53.906;27.430;2024-02-14T21:14:44;1016.2;;;4;60.3
74427;BME280;62859;53.906;27.430;2024-02-14T21:19:34;1016.2;;;3.9;60.4
74427;BME280;62859;53.906;27.430;2024-02-14T21:24:20;1016.3;;;4;60.4
74427;BME280;62859;53.906;27.430;2024-02-14T21:29:18;1016.4;;;4;60.5
74427;BME280;62859;53.906;27.430;2024-02-14T21:34:18;1016.3;;;4;60.4
74427;BME280;62859;53.906;27.430;2024-02-14T21:39:26;1016.4;;;3.9;60.8
74427;BME280;62859;53.906;27.430;2024-02-14T21:44:18;1016.4;;;3.9;61.1
74427;BME280;62859;53.906;27.430;2024-02-14T21:49:10;1016.4;;;3.9;61.4
74427;BME280;62859;53.906;27.430;2024-02-14T21:54:36;1016.4;;;3.8;61.2
74427;BME280;62859;53.906;27.430;2024-02-14T21:59:54;1016.4;;;3.8;61.4
74427;BME280;62859;53.906;27.430;2024-02-14T22:04:36;1016.4;;;3.9;61
74427;BME280;62859;53.906;27.430;2024-02-14T22:09:54;1016.4;;;3.8;61
74427;BME280;62859;53.906;27.430;2024-02-14T22:14:54;1016.4;;;3.8;60.9
74427;BME280;62859;53.906;27.430;2024-02-14T22:19:20;1016.5;;;3.8;61.2
74427;BME280;62859;53.906;27.430;2024-02-14T22:24:54;1016.5;;;3.8;61
74427;BME280;62859;53.906;27.430;2024-02-14T22:29:54;1016.5;;;3.9;61
74427;BME280;62859;53.906;27.430;2024-02-14T22:34:28;1016.5;;;3.9;61.1
74427;BME280;62859;53.906;27.430;2024-02-14T22:39:26;1016.5;;;3.9;60.9
74427;BME280;62859;53.906;27.430;2024-02-14T22:44:54;1016.6;;;3.9;61
74427;BME280;62859;53.906;27.430;2024-02-14T22:49:38;1016.6;;;3.9;60.8
74427;BME280;62859;53.906;27.430;2024-02-14T22:54:54;1016.6;;;3.9;60.5
74427;BME280;62859;53.906;27.430;2024-02-14T22:59:18;1016.6;;;4;60.5
74427;BME280;62859;53.906;27.430;2024-02-14T23:04:54;1016.6;;;3.9;60.4
74427;BME280;62859;53.906;27.430;2024-02-14T23:09:36;1016.6;;;3.9;60.6
74427;BME280;62859;53.906;27.430;2024-02-14T23:14:10;1016.6;;;4;60.7
74427;BME280;62859;53.906;27.430;2024-02-14T23:19:10;1016.6;;;4;60.8
74427;BME280;62859;53.906;27.430;2024-02-14T23:24:18;1016.7;;;3.9;60.8
74427;BME280;62859;53.906;27.430;2024-02-14T23:29:10;1016.7;;;3.9;60.7
74427;BME280;62859;53.906;27.430;2024-02-14T23:34:54;1016.6;;;3.9;60.8
74427;BME280;62859;53.906;27.430;2024-02-14T23:39:44;1016.7;;;3.9;60.7
74427;BME280;62859;53.906;27.430;2024-02-14T23:44:18;1016.7;;;3.9;60.4
74427;BME280;62859;53.906;27.430;2024-02-14T23:49:44;1016.7;;;3.9;60
74427;BME280;62859;53.906;27.430;2024-02-14T23:54:36;1016.7;;;3.9;60
74427;BME280;62859;53.906;27.430;2024-02-14T23:59:38;1016.7;;;4;60.4
